sensor_id;sensor_type;location;lat;lon;timestamp;P1;durP1;ratioP1;P2;durP2;ratioP2
20689;SDS011;10504;48.762;8.996;2023-11-18T00:01:21;2.80;;;2.70;;
20689;SDS011;10504;48.762;8.996;2023-11-18T00:03:47;2.70;;;2.60;;
20689;SDS011;10504;48.762;8.996;2023-11-18T00:06:13;2.60;;;2.50;;
20689;SDS011;10504;48.762;8.996;2023-11-18T00:08:39;3.10;;;2.90;;
20689;SDS011;10504;48.762;8.996;2023-11-18T00:11:05;3.20;;;3.00;;
20689;SDS011;10504;48.762;8.996;2023-11-18T00:13:30;2.63;;;2.53;;
20689;SDS011;10504;48.762;8.996;2023-11-18T00:15:56;2.97;;;2.77;;
20689;SDS011;10504;48.762;8.996;2023-11-18T00:18:23;2.67;;;2.57;;
20689;SDS011;10504;48.762;8.996;2023-11-18T00:20:48;3.10;;;2.90;;
20689;SDS011;10504;48.762;8.996;2023-11-18T00:23:15;2.83;;;2.73;;
20689;SDS011;10504;48.762;8.996;2023-11-18T00:25:42;2.93;;;2.73;;
20689;SDS011;10504;48.762;8.996;2023-11-18T00:28:10;2.97;;;2.80;;
20689;SDS011;10504;48.762;8.996;2023-11-18T00:30:36;2.60;;;2.50;;
20689;SDS011;10504;48.762;8.996;2023-11-18T00:33:02;3.63;;;3.43;;
20689;SDS011;10504;48.762;8.996;2023-11-18T00:35:28;2.90;;;2.70;;
20689;SDS011;10504;48.762;8.996;2023-11-18T00:37:57;3.00;;;2.80;;
20689;SDS011;10504;48.762;8.996;2023-11-18T00:40:23;3.10;;;2.90;;
20689;SDS011;10504;48.762;8.996;2023-11-18T00:42:49;3.30;;;3.10;;
20689;SDS011;10504;48.762;8.996;2023-11-18T00:45:15;2.80;;;2.70;;
20689;SDS011;10504;48.762;8.996;2023-11-18T00:47:40;3.03;;;2.87;;
20689;SDS011;10504;48.762;8.996;2023-11-18T00:50:06;6.67;;;3.20;;
20689;SDS011;10504;48.762;8.996;2023-11-18T00:52:33;3.40;;;3.20;;
20689;SDS011;10504;48.762;8.996;2023-11-18T00:55:00;3.20;;;3.00;;
20689;SDS011;10504;48.762;8.996;2023-11-18T00:57:26;3.33;;;3.13;;
20689;SDS011;10504;48.762;8.996;2023-11-18T00:59:52;2.97;;;2.87;;
20689;SDS011;10504;48.762;8.996;2023-11-18T01:02:17;2.90;;;2.80;;
20689;SDS011;10504;48.762;8.996;2023-11-18T01:04:43;3.07;;;2.93;;
20689;SDS011;10504;48.762;8.996;2023-11-18T01:07:11;3.20;;;3.00;;
20689;SDS011;10504;48.762;8.996;2023-11-18T01:09:37;3.23;;;3.03;;
20689;SDS011;10504;48.762;8.996;2023-11-18T01:12:04;3.20;;;3.00;;
20689;SDS011;10504;48.762;8.996;2023-11-18T01:14:30;3.23;;;3.03;;
20689;SDS011;10504;48.762;8.996;2023-11-18T01:16:56;3.50;;;3.20;;
20689;SDS011;10504;48.762;8.996;2023-11-18T01:19:22;3.20;;;3.00;;
20689;SDS011;10504;48.762;8.996;2023-11-18T01:21:48;4.23;;;3.37;;
20689;SDS011;10504;48.762;8.996;2023-11-18T01:24:14;3.33;;;3.13;;
20689;SDS011;10504;48.762;8.996;2023-11-18T01:26:41;3.13;;;2.97;;
20689;SDS011;10504;48.762;8.996;2023-11-18T01:29:07;3.40;;;3.20;;
20689;SDS011;10504;48.762;8.996;2023-11-18T01:31:32;3.40;;;3.20;;
20689;SDS011;10504;48.762;8.996;2023-11-18T01:33:58;2.87;;;2.77;;
20689;SDS011;10504;48.762;8.996;2023-11-18T01:36:27;2.90;;;2.80;;
20689;SDS011;10504;48.762;8.996;2023-11-18T01:38:52;3.67;;;3.47;;
20689;SDS011;10504;48.762;8.996;2023-11-18T01:41:20;3.20;;;3.00;;
20689;SDS011;10504;48.762;8.996;2023-11-18T01:43:46;3.43;;;3.13;;
20689;SDS011;10504;48.762;8.996;2023-11-18T01:46:12;3.33;;;3.13;;
20689;SDS011;10504;48.762;8.996;2023-11-18T01:48:38;3.60;;;3.40;;
20689;SDS011;10504;48.762;8.996;2023-11-18T01:51:05;3.27;;;3.07;;
20689;SDS011;10504;48.762;8.996;2023-11-18T01:53:32;3.33;;;3.13;;
20689;SDS011;10504;48.762;8.996;2023-11-18T01:56:00;3.43;;;3.23;;
20689;SDS011;10504;48.762;8.996;2023-11-18T01:58:27;3.50;;;3.30;;
20689;SDS011;10504;48.762;8.996;2023-11-18T02:00:56;3.47;;;3.27;;
20689;SDS011;10504;48.762;8.996;2023-11-18T02:03:22;3.47;;;3.27;;
20689;SDS011;10504;48.762;8.996;2023-11-18T02:05:48;3.50;;;3.30;;
20689;SDS011;10504;48.762;8.996;2023-11-18T02:08:14;3.50;;;3.30;;
20689;SDS011;10504;48.762;8.996;2023-11-18T02:10:44;3.50;;;3.30;;
20689;SDS011;10504;48.762;8.996;2023-11-18T02:13:13;3.50;;;3.30;;
20689;SDS011;10504;48.762;8.996;2023-11-18T02:15:50;3.30;;;3.10;;
20689;SDS011;10504;48.762;8.996;2023-11-18T02:18:18;3.80;;;3.50;;
20689;SDS011;10504;48.762;8.996;2023-11-18T02:20:45;3.63;;;3.43;;
20689;SDS011;10504;48.762;8.996;2023-11-18T02:23:13;3.40;;;3.20;;
20689;SDS011;10504;48.762;8.996;2023-11-18T02:25:45;3.90;;;3.70;;
20689;SDS011;10504;48.762;8.996;2023-11-18T02:28:12;3.57;;;3.37;;
20689;SDS011;10504;48.762;8.996;2023-11-18T02:30:38;3.97;;;3.73;;
20689;SDS011;10504;48.762;8.996;2023-11-18T02:33:17;3.30;;;3.10;;
20689;SDS011;10504;48.762;8.996;2023-11-18T02:35:55;3.90;;;3.60;;
20689;SDS011;10504;48.762;8.996;2023-11-18T02:38:31;3.50;;;3.30;;
20689;SDS011;10504;48.762;8.996;2023-11-18T02:41:02;3.67;;;3.47;;
20689;SDS011;10504;48.762;8.996;2023-11-18T02:43:34;3.10;;;2.90;;
20689;SDS011;10504;48.762;8.996;2023-11-18T02:46:02;3.67;;;3.47;;
20689;SDS011;10504;48.762;8.996;2023-11-18T02:48:31;3.03;;;2.90;;
20689;SDS011;10504;48.762;8.996;2023-11-18T02:50:57;2.93;;;2.83;;
20689;SDS011;10504;48.762;8.996;2023-11-18T02:53:24;2.90;;;2.80;;
20689;SDS011;10504;48.762;8.996;2023-11-18T02:55:50;2.73;;;2.63;;
20689;SDS011;10504;48.762;8.996;2023-11-18T02:58:17;3.33;;;3.13;;
20689;SDS011;10504;48.762;8.996;2023-11-18T03:00:43;2.80;;;2.70;;
20689;SDS011;10504;48.762;8.996;2023-11-18T03:03:09;2.60;;;2.50;;
20689;SDS011;10504;48.762;8.996;2023-11-18T03:05:36;3.00;;;2.80;;
20689;SDS011;10504;48.762;8.996;2023-11-18T03:08:02;2.90;;;2.80;;
20689;SDS011;10504;48.762;8.996;2023-11-18T03:10:31;2.90;;;2.80;;
20689;SDS011;10504;48.762;8.996;2023-11-18T03:13:00;3.00;;;2.90;;
20689;SDS011;10504;48.762;8.996;2023-11-18T03:15:26;2.70;;;2.60;;
20689;SDS011;10504;48.762;8.996;2023-11-18T03:17:53;2.97;;;2.87;;
20689;SDS011;10504;48.762;8.996;2023-11-18T03:20:19;3.37;;;3.17;;
20689;SDS011;10504;48.762;8.996;2023-11-18T03:22:47;2.60;;;2.50;;
20689;SDS011;10504;48.762;8.996;2023-11-18T03:25:15;2.90;;;2.80;;
20689;SDS011;10504;48.762;8.996;2023-11-18T03:27:42;2.90;;;2.80;;
20689;SDS011;10504;48.762;8.996;2023-11-18T03:30:08;3.10;;;2.90;;
20689;SDS011;10504;48.762;8.996;2023-11-18T03:32:37;3.60;;;3.30;;
20689;SDS011;10504;48.762;8.996;2023-11-18T03:35:05;2.90;;;2.80;;
20689;SDS011;10504;48.762;8.996;2023-11-18T03:37:38;2.80;;;2.70;;
20689;SDS011;10504;48.762;8.996;2023-11-18T03:40:09;2.70;;;2.60;;
20689;SDS011;10504;48.762;8.996;2023-11-18T03:42:39;3.43;;;3.13;;
20689;SDS011;10504;48.762;8.996;2023-11-18T03:45:08;2.93;;;2.83;;
20689;SDS011;10504;48.762;8.996;2023-11-18T03:47:34;3.30;;;3.10;;
20689;SDS011;10504;48.762;8.996;2023-11-18T03:50:00;3.73;;;3.43;;
20689;SDS011;10504;48.762;8.996;2023-11-18T03:52:26;3.30;;;3.10;;
20689;SDS011;10504;48.762;8.996;2023-11-18T03:54:52;3.90;;;3.60;;
20689;SDS011;10504;48.762;8.996;2023-11-18T03:57:20;3.30;;;3.10;;
20689;SDS011;10504;48.762;8.996;2023-11-18T03:59:46;2.90;;;2.80;;
20689;SDS011;10504;48.762;8.996;2023-11-18T04:02:11;3.27;;;3.07;;
20689;SDS011;10504;48.762;8.996;2023-11-18T04:04:37;3.33;;;3.13;;
20689;SDS011;10504;48.762;8.996;2023-11-18T04:07:03;3.10;;;2.90;;
20689;SDS011;10504;48.762;8.996;2023-11-18T04:09:29;3.40;;;3.10;;
20689;SDS011;10504;48.762;8.996;2023-11-18T04:11:55;3.40;;;3.20;;
20689;SDS011;10504;48.762;8.996;2023-11-18T04:14:21;3.60;;;3.40;;
20689;SDS011;10504;48.762;8.996;2023-11-18T04:16:47;4.17;;;3.87;;
20689;SDS011;10504;48.762;8.996;2023-11-18T04:19:14;3.77;;;3.57;;
20689;SDS011;10504;48.762;8.996;2023-11-18T04:21:40;3.40;;;3.20;;
20689;SDS011;10504;48.762;8.996;2023-11-18T04:24:05;3.50;;;3.30;;
20689;SDS011;10504;48.762;8.996;2023-11-18T04:26:32;3.33;;;3.13;;
20689;SDS011;10504;48.762;8.996;2023-11-18T04:28:58;3.50;;;3.30;;
20689;SDS011;10504;48.762;8.996;2023-11-18T04:31:24;3.60;;;3.40;;
20689;SDS011;10504;48.762;8.996;2023-11-18T04:33:50;3.30;;;3.10;;
20689;SDS011;10504;48.762;8.996;2023-11-18T04:36:15;4.50;;;4.10;;
20689;SDS011;10504;48.762;8.996;2023-11-18T04:38:41;3.53;;;3.33;;
20689;SDS011;10504;48.762;8.996;2023-11-18T04:41:08;4.53;;;4.23;;
20689;SDS011;10504;48.762;8.996;2023-11-18T04:43:34;3.40;;;3.20;;
20689;SDS011;10504;48.762;8.996;2023-11-18T04:46:00;3.63;;;3.43;;
20689;SDS011;10504;48.762;8.996;2023-11-18T04:48:26;3.93;;;3.73;;
20689;SDS011;10504;48.762;8.996;2023-11-18T04:50:51;3.53;;;3.33;;
20689;SDS011;10504;48.762;8.996;2023-11-18T04:53:17;3.67;;;3.47;;
20689;SDS011;10504;48.762;8.996;2023-11-18T04:55:42;3.73;;;3.53;;
20689;SDS011;10504;48.762;8.996;2023-11-18T04:58:08;4.13;;;3.83;;
20689;SDS011;10504;48.762;8.996;2023-11-18T05:00:37;3.30;;;3.10;;
20689;SDS011;10504;48.762;8.996;2023-11-18T05:03:07;3.40;;;3.20;;
20689;SDS011;10504;48.762;8.996;2023-11-18T05:05:35;3.53;;;3.33;;
20689;SDS011;10504;48.762;8.996;2023-11-18T05:08:03;3.50;;;3.30;;
20689;SDS011;10504;48.762;8.996;2023-11-18T05:10:33;3.60;;;3.40;;
20689;SDS011;10504;48.762;8.996;2023-11-18T05:12:59;3.50;;;3.30;;
20689;SDS011;10504;48.762;8.996;2023-11-18T05:15:24;3.93;;;3.53;;
20689;SDS011;10504;48.762;8.996;2023-11-18T05:17:50;4.03;;;3.73;;
20689;SDS011;10504;48.762;8.996;2023-11-18T05:20:17;3.60;;;3.40;;
20689;SDS011;10504;48.762;8.996;2023-11-18T05:22:43;3.63;;;3.43;;
20689;SDS011;10504;48.762;8.996;2023-11-18T05:25:09;3.93;;;3.70;;
20689;SDS011;10504;48.762;8.996;2023-11-18T05:27:35;4.13;;;3.83;;
20689;SDS011;10504;48.762;8.996;2023-11-18T05:30:01;3.70;;;3.50;;
20689;SDS011;10504;48.762;8.996;2023-11-18T05:32:27;3.80;;;3.60;;
20689;SDS011;10504;48.762;8.996;2023-11-18T05:34:53;3.57;;;3.37;;
20689;SDS011;10504;48.762;8.996;2023-11-18T05:37:23;3.33;;;3.13;;
20689;SDS011;10504;48.762;8.996;2023-11-18T05:39:49;3.30;;;3.10;;
20689;SDS011;10504;48.762;8.996;2023-11-18T05:42:24;3.70;;;3.50;;
20689;SDS011;10504;48.762;8.996;2023-11-18T05:44:50;3.70;;;3.50;;
20689;SDS011;10504;48.762;8.996;2023-11-18T05:47:23;3.27;;;3.07;;
20689;SDS011;10504;48.762;8.996;2023-11-18T05:49:50;4.63;;;4.23;;
20689;SDS011;10504;48.762;8.996;2023-11-18T05:52:16;3.67;;;3.47;;
20689;SDS011;10504;48.762;8.996;2023-11-18T05:54:42;3.63;;;3.43;;
20689;SDS011;10504;48.762;8.996;2023-11-18T05:57:07;3.67;;;3.47;;
20689;SDS011;10504;48.762;8.996;2023-11-18T05:59:33;4.03;;;3.83;;
20689;SDS011;10504;48.762;8.996;2023-11-18T06:01:59;3.83;;;3.63;;
20689;SDS011;10504;48.762;8.996;2023-11-18T06:04:25;3.40;;;3.20;;
20689;SDS011;10504;48.762;8.996;2023-11-18T06:06:50;4.30;;;4.03;;
20689;SDS011;10504;48.762;8.996;2023-11-18T06:09:16;3.70;;;3.50;;
20689;SDS011;10504;48.762;8.996;2023-11-18T06:11:50;3.70;;;3.50;;
20689;SDS011;10504;48.762;8.996;2023-11-18T06:14:18;3.87;;;3.67;;
20689;SDS011;10504;48.762;8.996;2023-11-18T06:16:44;4.23;;;3.93;;
20689;SDS011;10504;48.762;8.996;2023-11-18T06:19:10;4.10;;;3.80;;
20689;SDS011;10504;48.762;8.996;2023-11-18T06:21:35;3.60;;;3.40;;
20689;SDS011;10504;48.762;8.996;2023-11-18T06:24:01;3.47;;;3.27;;
20689;SDS011;10504;48.762;8.996;2023-11-18T06:26:30;3.60;;;3.40;;
20689;SDS011;10504;48.762;8.996;2023-11-18T06:28:56;3.70;;;3.50;;
20689;SDS011;10504;48.762;8.996;2023-11-18T06:31:25;3.73;;;3.53;;
20689;SDS011;10504;48.762;8.996;2023-11-18T06:33:51;4.03;;;3.80;;
20689;SDS011;10504;48.762;8.996;2023-11-18T06:36:20;3.90;;;3.63;;
20689;SDS011;10504;48.762;8.996;2023-11-18T06:38:50;4.03;;;3.83;;
20689;SDS011;10504;48.762;8.996;2023-11-18T06:41:17;3.90;;;3.70;;
20689;SDS011;10504;48.762;8.996;2023-11-18T06:43:44;4.00;;;3.80;;
20689;SDS011;10504;48.762;8.996;2023-11-18T06:48:58;4.00;;;3.80;;
20689;SDS011;10504;48.762;8.996;2023-11-18T06:51:29;4.23;;;3.97;;
20689;SDS011;10504;48.762;8.996;2023-11-18T06:53:57;4.63;;;4.33;;
20689;SDS011;10504;48.762;8.996;2023-11-18T06:56:23;3.90;;;3.70;;
20689;SDS011;10504;48.762;8.996;2023-11-18T06:58:49;5.13;;;4.73;;
20689;SDS011;10504;48.762;8.996;2023-11-18T07:01:15;3.63;;;3.43;;
20689;SDS011;10504;48.762;8.996;2023-11-18T07:03:41;3.73;;;3.53;;
20689;SDS011;10504;48.762;8.996;2023-11-18T07:06:08;5.27;;;4.77;;
20689;SDS011;10504;48.762;8.996;2023-11-18T07:08:34;3.77;;;3.53;;
20689;SDS011;10504;48.762;8.996;2023-11-18T07:11:01;4.33;;;4.03;;
20689;SDS011;10504;48.762;8.996;2023-11-18T07:13:27;4.63;;;4.33;;
20689;SDS011;10504;48.762;8.996;2023-11-18T07:15:53;4.53;;;4.23;;
20689;SDS011;10504;48.762;8.996;2023-11-18T07:18:21;4.20;;;4.00;;
20689;SDS011;10504;48.762;8.996;2023-11-18T07:20:50;4.17;;;3.93;;
20689;SDS011;10504;48.762;8.996;2023-11-18T07:23:17;4.43;;;4.13;;
20689;SDS011;10504;48.762;8.996;2023-11-18T07:25:44;4.00;;;3.80;;
20689;SDS011;10504;48.762;8.996;2023-11-18T07:28:10;4.40;;;4.10;;
20689;SDS011;10504;48.762;8.996;2023-11-18T07:30:36;4.43;;;4.03;;
20689;SDS011;10504;48.762;8.996;2023-11-18T07:33:02;4.43;;;4.13;;
20689;SDS011;10504;48.762;8.996;2023-11-18T07:35:28;3.83;;;3.63;;
20689;SDS011;10504;48.762;8.996;2023-11-18T07:37:55;4.10;;;3.90;;
20689;SDS011;10504;48.762;8.996;2023-11-18T07:40:21;4.40;;;4.10;;
20689;SDS011;10504;48.762;8.996;2023-11-18T07:42:53;4.87;;;4.57;;
20689;SDS011;10504;48.762;8.996;2023-11-18T07:45:21;4.27;;;4.03;;
20689;SDS011;10504;48.762;8.996;2023-11-18T07:47:48;4.10;;;3.90;;
20689;SDS011;10504;48.762;8.996;2023-11-18T07:50:16;4.97;;;4.67;;
20689;SDS011;10504;48.762;8.996;2023-11-18T07:52:47;4.60;;;4.30;;
20689;SDS011;10504;48.762;8.996;2023-11-18T07:55:16;4.50;;;4.23;;
20689;SDS011;10504;48.762;8.996;2023-11-18T07:57:42;4.53;;;4.23;;
20689;SDS011;10504;48.762;8.996;2023-11-18T08:00:08;4.67;;;4.37;;
20689;SDS011;10504;48.762;8.996;2023-11-18T08:02:37;4.90;;;4.60;;
20689;SDS011;10504;48.762;8.996;2023-11-18T08:05:04;4.90;;;4.60;;
20689;SDS011;10504;48.762;8.996;2023-11-18T08:07:36;4.70;;;4.40;;
20689;SDS011;10504;48.762;8.996;2023-11-18T08:10:04;4.80;;;4.50;;
20689;SDS011;10504;48.762;8.996;2023-11-18T08:12:31;4.60;;;4.30;;
20689;SDS011;10504;48.762;8.996;2023-11-18T08:14:57;4.10;;;3.90;;
20689;SDS011;10504;48.762;8.996;2023-11-18T08:17:25;4.30;;;4.10;;
20689;SDS011;10504;48.762;8.996;2023-11-18T08:19:52;4.57;;;4.27;;
20689;SDS011;10504;48.762;8.996;2023-11-18T08:22:18;5.03;;;4.70;;
20689;SDS011;10504;48.762;8.996;2023-11-18T08:24:44;4.30;;;4.10;;
20689;SDS011;10504;48.762;8.996;2023-11-18T08:27:11;4.70;;;4.40;;
20689;SDS011;10504;48.762;8.996;2023-11-18T08:29:37;5.17;;;4.77;;
20689;SDS011;10504;48.762;8.996;2023-11-18T08:32:04;4.80;;;4.50;;
20689;SDS011;10504;48.762;8.996;2023-11-18T08:34:31;4.30;;;4.00;;
20689;SDS011;10504;48.762;8.996;2023-11-18T08:36:58;4.50;;;4.20;;
20689;SDS011;10504;48.762;8.996;2023-11-18T08:39:24;4.80;;;4.47;;
20689;SDS011;10504;48.762;8.996;2023-11-18T08:41:51;4.50;;;4.20;;
20689;SDS011;10504;48.762;8.996;2023-11-18T08:44:17;3.93;;;3.73;;
20689;SDS011;10504;48.762;8.996;2023-11-18T08:46:43;3.70;;;3.50;;
20689;SDS011;10504;48.762;8.996;2023-11-18T08:49:09;4.80;;;4.50;;
20689;SDS011;10504;48.762;8.996;2023-11-18T08:51:39;3.90;;;3.70;;
20689;SDS011;10504;48.762;8.996;2023-11-18T08:54:08;3.90;;;3.70;;
20689;SDS011;10504;48.762;8.996;2023-11-18T08:56:50;3.90;;;3.70;;
20689;SDS011;10504;48.762;8.996;2023-11-18T08:59:19;4.40;;;4.10;;
20689;SDS011;10504;48.762;8.996;2023-11-18T09:01:52;3.80;;;3.60;;
20689;SDS011;10504;48.762;8.996;2023-11-18T09:04:21;4.00;;;3.80;;
20689;SDS011;10504;48.762;8.996;2023-11-18T09:06:50;4.33;;;4.03;;
20689;SDS011;10504;48.762;8.996;2023-11-18T09:09:22;4.57;;;4.27;;
20689;SDS011;10504;48.762;8.996;2023-11-18T09:11:54;4.47;;;4.17;;
20689;SDS011;10504;48.762;8.996;2023-11-18T09:14:22;4.40;;;4.10;;
20689;SDS011;10504;48.762;8.996;2023-11-18T09:16:49;3.93;;;3.73;;
20689;SDS011;10504;48.762;8.996;2023-11-18T09:19:15;4.10;;;3.90;;
20689;SDS011;10504;48.762;8.996;2023-11-18T09:21:42;5.00;;;4.60;;
20689;SDS011;10504;48.762;8.996;2023-11-18T09:24:09;4.50;;;4.20;;
20689;SDS011;10504;48.762;8.996;2023-11-18T09:26:38;4.20;;;4.00;;
20689;SDS011;10504;48.762;8.996;2023-11-18T09:29:04;4.17;;;3.97;;
20689;SDS011;10504;48.762;8.996;2023-11-18T09:31:36;4.53;;;4.23;;
20689;SDS011;10504;48.762;8.996;2023-11-18T09:34:02;6.10;;;4.30;;
20689;SDS011;10504;48.762;8.996;2023-11-18T09:36:32;4.47;;;4.17;;
20689;SDS011;10504;48.762;8.996;2023-11-18T09:38:59;4.40;;;4.10;;
20689;SDS011;10504;48.762;8.996;2023-11-18T09:41:25;5.13;;;4.77;;
20689;SDS011;10504;48.762;8.996;2023-11-18T09:43:52;4.43;;;4.13;;
20689;SDS011;10504;48.762;8.996;2023-11-18T09:48:52;4.67;;;4.37;;
20689;SDS011;10504;48.762;8.996;2023-11-18T09:51:39;4.80;;;4.50;;
20689;SDS011;10504;48.762;8.996;2023-11-18T09:54:18;4.90;;;4.60;;
20689;SDS011;10504;48.762;8.996;2023-11-18T09:57:03;4.50;;;4.30;;
20689;SDS011;10504;48.762;8.996;2023-11-18T10:02:51;5.00;;;4.70;;
20689;SDS011;10504;48.762;8.996;2023-11-18T10:05:19;6.57;;;6.07;;
20689;SDS011;10504;48.762;8.996;2023-11-18T10:07:48;4.53;;;4.30;;
20689;SDS011;10504;48.762;8.996;2023-11-18T10:10:15;5.20;;;4.90;;
20689;SDS011;10504;48.762;8.996;2023-11-18T10:12:44;4.83;;;4.53;;
20689;SDS011;10504;48.762;8.996;2023-11-18T10:15:17;5.10;;;4.70;;
20689;SDS011;10504;48.762;8.996;2023-11-18T10:17:45;5.40;;;5.10;;
20689;SDS011;10504;48.762;8.996;2023-11-18T10:20:22;5.20;;;4.90;;
20689;SDS011;10504;48.762;8.996;2023-11-18T10:23:09;4.90;;;4.60;;
20689;SDS011;10504;48.762;8.996;2023-11-18T10:25:36;5.10;;;4.80;;
20689;SDS011;10504;48.762;8.996;2023-11-18T10:30:57;5.50;;;5.20;;
20689;SDS011;10504;48.762;8.996;2023-11-18T10:33:28;5.10;;;4.80;;
20689;SDS011;10504;48.762;8.996;2023-11-18T10:36:06;5.30;;;5.00;;
20689;SDS011;10504;48.762;8.996;2023-11-18T10:38:51;6.17;;;5.60;;
20689;SDS011;10504;48.762;8.996;2023-11-18T10:41:20;5.60;;;5.30;;
20689;SDS011;10504;48.762;8.996;2023-11-18T10:43:46;5.80;;;5.40;;
20689;SDS011;10504;48.762;8.996;2023-11-18T10:46:15;5.20;;;4.90;;
20689;SDS011;10504;48.762;8.996;2023-11-18T10:51:09;5.50;;;5.20;;
20689;SDS011;10504;48.762;8.996;2023-11-18T10:53:42;5.40;;;5.10;;
20689;SDS011;10504;48.762;8.996;2023-11-18T10:56:20;6.03;;;5.63;;
20689;SDS011;10504;48.762;8.996;2023-11-18T10:58:51;5.60;;;5.30;;
20689;SDS011;10504;48.762;8.996;2023-11-18T11:01:41;5.47;;;5.17;;
20689;SDS011;10504;48.762;8.996;2023-11-18T11:04:13;5.47;;;5.17;;
20689;SDS011;10504;48.762;8.996;2023-11-18T11:06:46;5.50;;;5.20;;
20689;SDS011;10504;48.762;8.996;2023-11-18T11:09:20;5.53;;;5.23;;
20689;SDS011;10504;48.762;8.996;2023-11-18T11:11:54;5.50;;;5.10;;
20689;SDS011;10504;48.762;8.996;2023-11-18T11:14:24;6.00;;;5.60;;
20689;SDS011;10504;48.762;8.996;2023-11-18T11:17:00;6.40;;;6.00;;
20689;SDS011;10504;48.762;8.996;2023-11-18T11:19:50;5.80;;;5.50;;
20689;SDS011;10504;48.762;8.996;2023-11-18T11:22:28;5.80;;;5.50;;
20689;SDS011;10504;48.762;8.996;2023-11-18T11:27:47;6.00;;;5.60;;
20689;SDS011;10504;48.762;8.996;2023-11-18T11:30:29;6.13;;;5.73;;
20689;SDS011;10504;48.762;8.996;2023-11-18T11:33:13;6.00;;;5.60;;
20689;SDS011;10504;48.762;8.996;2023-11-18T11:35:42;5.60;;;5.30;;
20689;SDS011;10504;48.762;8.996;2023-11-18T11:38:22;5.50;;;5.20;;
20689;SDS011;10504;48.762;8.996;2023-11-18T11:40:49;5.97;;;5.57;;
20689;SDS011;10504;48.762;8.996;2023-11-18T11:43:18;5.60;;;5.30;;
20689;SDS011;10504;48.762;8.996;2023-11-18T11:45:52;5.80;;;5.50;;
20689;SDS011;10504;48.762;8.996;2023-11-18T11:48:20;5.60;;;5.30;;
20689;SDS011;10504;48.762;8.996;2023-11-18T11:53:30;6.00;;;5.60;;
20689;SDS011;10504;48.762;8.996;2023-11-18T11:56:04;6.20;;;5.80;;
20689;SDS011;10504;48.762;8.996;2023-11-18T11:58:31;5.80;;;5.50;;
20689;SDS011;10504;48.762;8.996;2023-11-18T12:01:16;5.70;;;5.40;;
20689;SDS011;10504;48.762;8.996;2023-11-18T12:03:49;6.43;;;6.03;;
20689;SDS011;10504;48.762;8.996;2023-11-18T12:06:22;6.20;;;5.80;;
20689;SDS011;10504;48.762;8.996;2023-11-18T12:08:52;6.40;;;6.00;;
20689;SDS011;10504;48.762;8.996;2023-11-18T12:11:18;5.93;;;5.60;;
20689;SDS011;10504;48.762;8.996;2023-11-18T12:14:06;6.10;;;5.70;;
20689;SDS011;10504;48.762;8.996;2023-11-18T12:19:39;6.23;;;5.83;;
20689;SDS011;10504;48.762;8.996;2023-11-18T12:22:20;5.80;;;5.50;;
20689;SDS011;10504;48.762;8.996;2023-11-18T12:27:42;6.00;;;5.60;;
20689;SDS011;10504;48.762;8.996;2023-11-18T12:32:59;6.10;;;5.70;;
20689;SDS011;10504;48.762;8.996;2023-11-18T12:41:37;5.90;;;5.60;;
20689;SDS011;10504;48.762;8.996;2023-11-18T12:44:27;6.30;;;5.90;;
20689;SDS011;10504;48.762;8.996;2023-11-18T12:47:03;6.10;;;5.70;;
20689;SDS011;10504;48.762;8.996;2023-11-18T12:49:40;6.00;;;5.60;;
20689;SDS011;10504;48.762;8.996;2023-11-18T12:52:10;5.90;;;5.60;;
20689;SDS011;10504;48.762;8.996;2023-11-18T12:54:40;6.10;;;5.70;;
20689;SDS011;10504;48.762;8.996;2023-11-18T12:57:09;6.60;;;6.20;;
20689;SDS011;10504;48.762;8.996;2023-11-18T12:59:39;6.50;;;6.00;;
20689;SDS011;10504;48.762;8.996;2023-11-18T13:02:08;6.10;;;5.70;;
20689;SDS011;10504;48.762;8.996;2023-11-18T13:04:44;6.40;;;6.00;;
20689;SDS011;10504;48.762;8.996;2023-11-18T13:07:15;6.10;;;5.70;;
20689;SDS011;10504;48.762;8.996;2023-11-18T13:09:46;6.50;;;6.00;;
20689;SDS011;10504;48.762;8.996;2023-11-18T13:12:12;5.90;;;5.60;;
20689;SDS011;10504;48.762;8.996;2023-11-18T13:14:42;6.23;;;5.83;;
20689;SDS011;10504;48.762;8.996;2023-11-18T13:17:09;6.57;;;6.07;;
20689;SDS011;10504;48.762;8.996;2023-11-18T13:19:36;5.90;;;5.60;;
20689;SDS011;10504;48.762;8.996;2023-11-18T13:22:03;6.73;;;6.23;;
20689;SDS011;10504;48.762;8.996;2023-11-18T13:24:32;6.77;;;6.37;;
20689;SDS011;10504;48.762;8.996;2023-11-18T13:26:59;6.40;;;6.00;;
20689;SDS011;10504;48.762;8.996;2023-11-18T13:29:29;6.87;;;6.47;;
20689;SDS011;10504;48.762;8.996;2023-11-18T13:31:56;6.70;;;6.20;;
20689;SDS011;10504;48.762;8.996;2023-11-18T13:34:23;5.83;;;5.53;;
20689;SDS011;10504;48.762;8.996;2023-11-18T13:36:50;6.30;;;5.90;;
20689;SDS011;10504;48.762;8.996;2023-11-18T13:39:19;6.20;;;5.80;;
20689;SDS011;10504;48.762;8.996;2023-11-18T13:41:54;6.50;;;6.10;;
20689;SDS011;10504;48.762;8.996;2023-11-18T13:44:32;6.60;;;6.20;;
20689;SDS011;10504;48.762;8.996;2023-11-18T13:47:05;6.60;;;6.20;;
20689;SDS011;10504;48.762;8.996;2023-11-18T13:49:32;6.20;;;5.80;;
20689;SDS011;10504;48.762;8.996;2023-11-18T13:51:59;6.37;;;5.97;;
20689;SDS011;10504;48.762;8.996;2023-11-18T13:54:29;6.40;;;6.00;;
20689;SDS011;10504;48.762;8.996;2023-11-18T13:56:55;6.50;;;6.10;;
20689;SDS011;10504;48.762;8.996;2023-11-18T13:59:24;5.90;;;5.60;;
20689;SDS011;10504;48.762;8.996;2023-11-18T14:01:51;6.77;;;6.30;;
20689;SDS011;10504;48.762;8.996;2023-11-18T14:04:24;6.40;;;6.00;;
20689;SDS011;10504;48.762;8.996;2023-11-18T14:06:56;6.60;;;6.20;;
20689;SDS011;10504;48.762;8.996;2023-11-18T14:09:23;6.53;;;6.13;;
20689;SDS011;10504;48.762;8.996;2023-11-18T14:11:54;6.33;;;5.93;;
20689;SDS011;10504;48.762;8.996;2023-11-18T14:14:21;6.70;;;6.30;;
20689;SDS011;10504;48.762;8.996;2023-11-18T14:16:48;6.40;;;6.00;;
20689;SDS011;10504;48.762;8.996;2023-11-18T14:19:14;6.77;;;6.27;;
20689;SDS011;10504;48.762;8.996;2023-11-18T14:21:40;6.30;;;5.90;;
20689;SDS011;10504;48.762;8.996;2023-11-18T14:24:09;6.57;;;6.17;;
20689;SDS011;10504;48.762;8.996;2023-11-18T14:26:36;6.40;;;6.00;;
20689;SDS011;10504;48.762;8.996;2023-11-18T14:29:05;6.97;;;6.50;;
20689;SDS011;10504;48.762;8.996;2023-11-18T14:31:31;7.50;;;6.67;;
20689;SDS011;10504;48.762;8.996;2023-11-18T14:33:57;6.73;;;6.23;;
20689;SDS011;10504;48.762;8.996;2023-11-18T14:36:25;6.30;;;5.90;;
20689;SDS011;10504;48.762;8.996;2023-11-18T14:38:51;5.90;;;5.60;;
20689;SDS011;10504;48.762;8.996;2023-11-18T14:41:17;6.30;;;5.90;;
20689;SDS011;10504;48.762;8.996;2023-11-18T14:43:44;6.10;;;5.70;;
20689;SDS011;10504;48.762;8.996;2023-11-18T14:46:11;5.80;;;5.50;;
20689;SDS011;10504;48.762;8.996;2023-11-18T14:48:36;6.20;;;5.80;;
20689;SDS011;10504;48.762;8.996;2023-11-18T14:51:02;6.10;;;5.70;;
20689;SDS011;10504;48.762;8.996;2023-11-18T14:53:29;5.90;;;5.60;;
20689;SDS011;10504;48.762;8.996;2023-11-18T14:55:55;5.80;;;5.50;;
20689;SDS011;10504;48.762;8.996;2023-11-18T14:58:22;6.40;;;6.00;;
20689;SDS011;10504;48.762;8.996;2023-11-18T15:00:48;6.80;;;6.40;;
20689;SDS011;10504;48.762;8.996;2023-11-18T15:03:16;8.10;;;6.30;;
20689;SDS011;10504;48.762;8.996;2023-11-18T15:05:42;5.83;;;5.53;;
20689;SDS011;10504;48.762;8.996;2023-11-18T15:08:09;6.53;;;6.13;;
20689;SDS011;10504;48.762;8.996;2023-11-18T15:10:39;5.90;;;5.60;;
20689;SDS011;10504;48.762;8.996;2023-11-18T15:13:07;6.50;;;6.10;;
20689;SDS011;10504;48.762;8.996;2023-11-18T15:15:37;6.50;;;6.10;;
20689;SDS011;10504;48.762;8.996;2023-11-18T15:18:04;6.00;;;5.60;;
20689;SDS011;10504;48.762;8.996;2023-11-18T15:20:33;6.80;;;6.30;;
20689;SDS011;10504;48.762;8.996;2023-11-18T15:22:59;6.20;;;5.80;;
20689;SDS011;10504;48.762;8.996;2023-11-18T15:25:25;19.63;;;6.60;;
20689;SDS011;10504;48.762;8.996;2023-11-18T15:27:52;6.10;;;5.70;;
20689;SDS011;10504;48.762;8.996;2023-11-18T15:30:18;6.43;;;6.00;;